Time;durP1;ratioP1;P1;durP2;ratioP2;P2;SDS_P1;SDS_P2;PMS_P1;PMS_P2;Temp;Humidity;BMP_temperature;BMP_pressure;BME280_temperature;BME280_humidity;BME280_pressure;Samples;Min_cycle;Max_cycle;Signal;HPM_P1;HPM_P2
2021/05/28 00:00:54;;;;;;;;;;;;;;;21.84;47.31;102023.78;2214893;39;114898;-53
2021/05/28 00:02:26;;;;;;;;;;;;;;;21.84;47.47;102023.78;2217443;39;114395;-52
2021/05/28 00:03:58;;;;;;;;;;;;;;;21.86;47.51;102027.13;2214581;39;114919;-52
2021/05/28 00:05:29;;;;;;;;;;;;;;;21.84;47.36;102026.59;2208599;39;114890;-53
2021/05/28 00:07:01;;;;;;;;;;;;;;;21.84;48.01;102034.19;2216467;39;114993;-53
2021/05/28 00:08:33;;;;;;;;;;;;;;;21.86;47.87;102035.56;2215999;39;116311;-54
2021/05/28 00:10:05;;;;;;;;;;;;;;;21.89;47.78;102034.16;2216257;39;115687;-52
2021/05/28 00:11:37;;;;;;;;;;;;;;;21.87;47.10;102036.41;2208595;39;115663;-52
2021/05/28 00:13:09;;;;;;;;;;;;;;;21.86;47.86;102035.56;2213306;39;114517;-53
2021/05/28 00:14:41;;;;;;;;;;;;;;;21.85;47.43;102038.69;2216958;39;115757;-52
2021/05/28 00:16:12;;;;;;;;;;;;;;;21.84;47.76;102035.03;2216704;39;115623;-53
2021/05/28 00:17:44;;;;;;;;;;;;;;;21.83;47.40;102040.94;2215937;39;115616;-52
2021/05/28 00:19:16;;;;;;;;;;;;;;;21.84;47.49;102045.44;2214959;39;116306;-52
2021/05/28 00:20:47;;;;;;;;;;;;;;;21.82;47.76;102045.72;2216634;39;115703;-52
2021/05/28 00:22:21;;;;;;;;;;;;;;;21.84;47.78;102045.44;2209337;39;115727;-54
2021/05/28 00:23:52;;;;;;;;;;;;;;;21.80;47.71;102039.56;2214355;39;114725;-53
2021/05/28 00:25:24;;;;;;;;;;;;;;;21.81;47.71;102046.84;2216883;39;115606;-52
2021/05/28 00:26:55;;;;;;;;;;;;;;;21.79;47.47;102043.50;2216703;39;114427;-53
2021/05/28 00:28:27;;;;;;;;;;;;;;;21.81;48.00;102051.63;2211875;39;115791;-52
2021/05/28 00:29:59;;;;;;;;;;;;;;;21.79;48.07;102048.28;2213493;39;113926;-53
2021/05/28 00:31:31;;;;;;;;;;;;;;;21.79;48.10;102048.28;2215850;39;113928;-53
2021/05/28 00:33:03;;;;;;;;;;;;;;;21.82;47.89;102044.88;2215140;39;114203;-52
2021/05/28 00:34:35;;;;;;;;;;;;;;;21.79;48.36;102053.91;2214108;39;114285;-53
2021/05/28 00:36:06;;;;;;;;;;;;;;;21.81;48.06;102057.25;2204776;39;114057;-53
2021/05/28 00:37:38;;;;;;;;;;;;;;;21.81;48.71;102051.63;2210180;39;113712;-53
2021/05/28 00:39:10;;;;;;;;;;;;;;;21.80;48.60;102047.16;2207766;39;113855;-52
2021/05/28 00:40:42;;;;;;;;;;;;;;;21.80;48.36;102048.00;2212305;39;113601;-52
2021/05/28 00:42:14;;;;;;;;;;;;;;;21.80;48.35;102045.19;2214428;39;113934;-54
2021/05/28 00:43:45;;;;;;;;;;;;;;;21.81;48.49;102041.22;2215135;39;113829;-52
2021/05/28 00:45:17;;;;;;;;;;;;;;;21.82;48.39;102047.69;2214041;39;114269;-53
2021/05/28 00:46:49;;;;;;;;;;;;;;;21.80;48.72;102044.34;2214544;39;113961;-53
2021/05/28 00:48:20;;;;;;;;;;;;;;;21.80;48.51;102045.19;2208347;39;113938;-52
2021/05/28 00:49:52;;;;;;;;;;;;;;;21.81;48.83;102052.47;2212242;39;113968;-52
2021/05/28 00:51:24;;;;;;;;;;;;;;;21.81;48.07;102044.03;2218951;39;113926;-53
2021/05/28 00:52:57;;;;;;;;;;;;;;;21.82;48.36;102053.31;2215539;39;115290;-53
2021/05/28 00:54:30;;;;;;;;;;;;;;;21.82;48.46;102053.31;2213862;39;115048;-53
2021/05/28 00:56:02;;;;;;;;;;;;;;;21.83;48.39;102052.19;2214013;39;114626;-53
2021/05/28 00:57:35;;;;;;;;;;;;;;;21.84;48.27;102051.06;2216849;39;113994;-52
2021/05/28 00:59:07;;;;;;;;;;;;;;;21.82;48.63;102053.31;2215911;39;113836;-52
2021/05/28 01:00:39;;;;;;;;;;;;;;;21.81;48.34;102060.91;2204220;39;114844;-53
2021/05/28 01:02:11;;;;;;;;;;;;;;;21.82;48.37;102058.94;2213517;39;114837;-53
2021/05/28 01:03:43;;;;;;;;;;;;;;;21.81;48.53;102058.09;2213636;39;115260;-53
2021/05/28 01:05:14;;;;;;;;;;;;;;;21.81;48.66;102062.88;2214832;39;115600;-53
2021/05/28 01:06:46;;;;;;;;;;;;;;;21.84;48.73;102070.78;2203437;39;113918;-53
2021/05/28 01:08:18;;;;;;;;;;;;;;;21.81;48.37;102065.69;2211140;39;115993;-53
2021/05/28 01:09:50;;;;;;;;;;;;;;;21.81;48.76;102062.88;2216776;39;114802;-54
2021/05/28 01:11:22;;;;;;;;;;;;;;;21.80;48.63;102062.06;2213834;39;114299;-55
2021/05/28 01:13:01;;;;;;;;;;;;;;;21.81;48.61;102062.88;2209318;39;116826;-53
2021/05/28 01:14:33;;;;;;;;;;;;;;;21.82;48.54;102061.75;2205903;39;115954;-53
2021/05/28 01:16:05;;;;;;;;;;;;;;;21.83;48.26;102055.84;2211337;39;115575;-54
2021/05/28 01:17:37;;;;;;;;;;;;;;;21.82;48.59;102061.75;2216202;39;116460;-53
2021/05/28 01:19:09;;;;;;;;;;;;;;;21.83;48.34;102060.63;2205685;39;115867;-53
2021/05/28 01:20:43;;;;;;;;;;;;;;;21.79;48.72;102066.00;2204359;39;115518;-53
2021/05/28 01:22:19;;;;;;;;;;;;;;;21.80;48.39;102064.03;2212443;39;115098;-53
2021/05/28 01:23:50;;;;;;;;;;;;;;;21.80;48.68;102058.41;2213892;39;115329;-53
2021/05/28 01:25:24;;;;;;;;;;;;;;;21.79;48.38;102065.16;2212912;39;114260;-52
2021/05/28 01:26:56;;;;;;;;;;;;;;;21.79;48.53;102068.81;2213835;39;116098;-52
2021/05/28 01:28:27;;;;;;;;;;;;;;;21.81;48.58;102068.50;2212062;39;115915;-55
2021/05/28 01:29:59;;;;;;;;;;;;;;;21.78;49.17;102071.91;2215885;39;115543;-52
2021/05/28 01:31:31;;;;;;;;;;;;;;;21.81;48.83;102065.69;2213482;39;115965;-52
2021/05/28 01:33:03;;;;;;;;;;;;;;;21.81;48.75;102069.34;2215636;39;115703;-53
2021/05/28 01:34:35;;;;;;;;;;;;;;;21.80;49.03;102064.03;2211231;39;116134;-52
2021/05/28 01:36:07;;;;;;;;;;;;;;;21.80;48.82;102070.50;2212822;39;113988;-52
2021/05/28 01:37:40;;;;;;;;;;;;;;;21.80;48.86;102072.47;2216729;39;113738;-52
2021/05/28 01:39:12;;;;;;;;;;;;;;;21.82;48.94;102078.66;2210392;39;113743;-52
2021/05/28 01:40:44;;;;;;;;;;;;;;;21.79;48.97;102066.00;2214164;39;113810;-52
2021/05/28 01:42:16;;;;;;;;;;;;;;;21.80;48.90;102072.47;2215396;39;114054;-52
2021/05/28 01:43:48;;;;;;;;;;;;;;;21.81;48.63;102076.94;2208230;39;114032;-53
2021/05/28 01:45:21;;;;;;;;;;;;;;;21.80;48.93;102072.47;2214268;39;113733;-53
2021/05/28 01:46:52;;;;;;;;;;;;;;;21.80;48.82;102069.66;2215570;39;113747;-52
2021/05/28 01:48:24;;;;;;;;;;;;;;;21.82;48.94;102075.81;2215720;39;114009;-51
2021/05/28 01:49:56;;;;;;;;;;;;;;;21.79;48.75;102077.25;2211782;39;113888;-52
2021/05/28 01:51:28;;;;;;;;;;;;;;;21.83;49.16;102077.53;2211506;39;114104;-52
2021/05/28 01:53:00;;;;;;;;;;;;;;;21.80;48.60;102078.09;2216643;39;113731;-52
2021/05/28 01:54:33;;;;;;;;;;;;;;;21.79;48.98;102070.78;2217613;39;113846;-52
2021/05/28 01:56:06;;;;;;;;;;;;;;;21.77;49.07;102075.84;2208825;39;114143;-52
2021/05/28 01:57:38;;;;;;;;;;;;;;;21.73;48.83;102078.41;2212078;39;116694;-53
2021/05/28 01:59:12;;;;;;;;;;;;;;;21.73;48.92;102073.63;2217435;39;115056;-52
2021/05/28 02:00:46;;;;;;;;;;;;;;;21.71;49.16;102070.25;2216617;39;114895;-52
2021/05/28 02:02:18;;;;;;;;;;;;;;;21.73;49.05;102073.63;2210933;39;114898;-52
2021/05/28 02:03:50;;;;;;;;;;;;;;;21.74;49.29;102069.69;2205430;39;114061;-53
2021/05/28 02:05:22;;;;;;;;;;;;;;;21.73;49.14;102076.44;2208940;39;115182;-53
2021/05/28 02:06:54;;;;;;;;;;;;;;;21.73;49.11;102067.16;2217475;39;115368;-52
2021/05/28 02:08:25;;;;;;;;;;;;;;;21.73;49.69;102068.00;2209978;39;114913;-52
2021/05/28 02:09:57;;;;;;;;;;;;;;;21.73;49.47;102075.59;2208501;39;115048;-52
2021/05/28 02:11:29;;;;;;;;;;;;;;;21.77;49.38;102078.66;2201817;39;114829;-52
2021/05/28 02:13:01;;;;;;;;;;;;;;;21.74;49.27;102077.28;2213057;39;115508;-52
2021/05/28 02:14:33;;;;;;;;;;;;;;;21.76;49.43;102075.00;2217122;39;115425;-52
2021/05/28 02:16:06;;;;;;;;;;;;;;;21.74;49.23;102074.47;2217597;39;114467;-52
2021/05/28 02:17:37;;;;;;;;;;;;;;;21.73;49.31;102073.63;2211839;39;114818;-52
2021/05/28 02:19:09;;;;;;;;;;;;;;;21.73;49.15;102079.25;2208281;39;114578;-52
2021/05/28 02:20:41;;;;;;;;;;;;;;;21.71;49.25;102078.69;2211280;39;114556;-56
2021/05/28 02:22:13;;;;;;;;;;;;;;;21.72;49.16;102077.56;2217001;39;115489;-52
2021/05/28 02:23:45;;;;;;;;;;;;;;;21.71;49.00;102075.88;2212129;39;115412;-54
2021/05/28 02:25:17;;;;;;;;;;;;;;;21.71;49.40;102080.69;2215322;39;115865;-52
2021/05/28 02:26:50;;;;;;;;;;;;;;;21.70;49.31;102079.00;2206517;39;115546;-53
2021/05/28 02:28:22;;;;;;;;;;;;;;;21.72;49.14;102079.53;2207505;39;115880;-52
2021/05/28 02:29:53;;;;;;;;;;;;;;;21.69;49.32;102080.97;2215266;39;116014;-52
2021/05/28 02:31:25;;;;;;;;;;;;;;;21.70;49.00;102079.00;2217026;39;114581;-52
2021/05/28 02:32:57;;;;;;;;;;;;;;;21.70;49.13;102081.81;2217609;39;115498;-52
2021/05/28 02:34:29;;;;;;;;;;;;;;;21.72;49.29;102079.53;2216630;39;114352;-52
2021/05/28 02:36:00;;;;;;;;;;;;;;;21.69;48.91;102077.31;2212329;39;115696;-52
2021/05/28 02:37:32;;;;;;;;;;;;;;;21.70;49.13;102076.19;2216833;39;115532;-53
2021/05/28 02:39:06;;;;;;;;;;;;;;;21.69;49.06;102082.94;2210575;39;115437;-52
2021/05/28 02:40:37;;;;;;;;;;;;;;;21.67;49.32;102079.56;2209686;39;115508;-52
2021/05/28 02:42:10;;;;;;;;;;;;;;;21.68;49.39;102072.81;2214664;39;113664;-53
2021/05/28 02:43:42;;;;;;;;;;;;;;;21.69;49.32;102078.16;2208632;39;115203;-52
2021/05/28 02:45:14;;;;;;;;;;;;;;;21.67;49.38;102082.38;2208739;39;113913;-51
2021/05/28 02:46:48;;;;;;;;;;;;;;;21.67;49.16;102080.41;2212486;39;113744;-52
2021/05/28 02:48:20;;;;;;;;;;;;;;;21.67;49.24;102071.97;2211641;39;113592;-52
2021/05/28 02:49:51;;;;;;;;;;;;;;;21.66;49.28;102072.28;2204777;39;113951;-52
2021/05/28 02:51:23;;;;;;;;;;;;;;;21.66;49.37;102081.56;2202743;39;113847;-52
2021/05/28 02:52:55;;;;;;;;;;;;;;;21.66;49.78;102083.53;2212674;39;113792;-52
2021/05/28 02:54:27;;;;;;;;;;;;;;;21.65;49.14;102079.88;2213212;39;113943;-53
2021/05/28 02:56:01;;;;;;;;;;;;;;;21.67;49.43;102080.41;2208113;39;113933;-51
2021/05/28 02:57:36;;;;;;;;;;;;;;;21.67;48.93;102082.38;2215277;39;113843;-55
2021/05/28 02:59:07;;;;;;;;;;;;;;;21.65;49.57;102082.69;2217001;39;113647;-52
2021/05/28 03:00:40;;;;;;;;;;;;;;;21.65;49.06;102087.47;2217653;39;114364;-52
2021/05/28 03:02:11;;;;;;;;;;;;;;;21.66;49.21;102080.72;2212165;39;113891;-52
2021/05/28 03:03:43;;;;;;;;;;;;;;;21.65;49.22;102090.28;2214941;39;114699;-53
2021/05/28 03:05:15;;;;;;;;;;;;;;;21.66;49.00;102086.34;2217121;39;114882;-52
2021/05/28 03:06:47;;;;;;;;;;;;;;;21.65;49.52;102091.13;2209925;39;114863;-53
2021/05/28 03:08:19;;;;;;;;;;;;;;;21.64;49.37;102092.25;2207681;39;113921;-52
2021/05/28 03:09:51;;;;;;;;;;;;;;;21.61;49.47;102089.16;2208343;39;115000;-53
2021/05/28 03:11:23;;;;;;;;;;;;;;;21.61;49.18;102083.53;2213900;39;114358;-54
2021/05/28 03:12:54;;;;;;;;;;;;;;;21.61;49.32;102087.19;2216585;39;114798;-52
2021/05/28 03:14:26;;;;;;;;;;;;;;;21.61;49.76;102091.97;2217695;39;114910;-52
2021/05/28 03:15:58;;;;;;;;;;;;;;;21.61;49.23;102084.38;2216442;39;114947;-52
2021/05/28 03:17:30;;;;;;;;;;;;;;;21.62;49.25;102085.22;2207369;39;115083;-52
2021/05/28 03:19:04;;;;;;;;;;;;;;;21.60;49.47;102082.69;2210721;39;114779;-52
2021/05/28 03:20:36;;;;;;;;;;;;;;;21.60;49.22;102079.88;2216412;39;114837;-52
2021/05/28 03:23:51;;;;;;;;;;;;;;;21.60;49.39;102079.88;2214944;39;113971;-52
2021/05/28 03:25:23;;;;;;;;;;;;;;;21.58;49.45;102079.31;2216965;39;115502;-52
2021/05/28 03:26:55;;;;;;;;;;;;;;;21.60;49.28;102076.22;2217044;39;114762;-52
2021/05/28 03:28:26;;;;;;;;;;;;;;;21.58;49.21;102082.13;2216699;39;115611;-52
2021/05/28 03:29:58;;;;;;;;;;;;;;;21.59;49.26;102077.34;2217123;39;115933;-52
2021/05/28 03:31:30;;;;;;;;;;;;;;;21.58;49.23;102082.13;2210289;39;116119;-52
2021/05/28 03:33:02;;;;;;;;;;;;;;;21.58;49.64;102082.13;2211833;39;115527;-53
2021/05/28 03:34:33;;;;;;;;;;;;;;;21.58;49.54;102084.94;2208523;39;116474;-53
2021/05/28 03:36:06;;;;;;;;;;;;;;;21.56;49.52;102080.75;2214063;39;115761;-52
2021/05/28 03:37:39;;;;;;;;;;;;;;;21.58;49.57;102082.13;2205023;39;115825;-53
2021/05/28 03:39:11;;;;;;;;;;;;;;;21.56;49.63;102086.38;2202098;39;114915;-52
2021/05/28 03:40:42;;;;;;;;;;;;;;;21.54;49.69;102086.66;2207785;39;116136;-52
2021/05/28 03:42:14;;;;;;;;;;;;;;;21.57;49.75;102076.81;2214782;39;115457;-52
2021/05/28 03:43:46;;;;;;;;;;;;;;;21.55;49.67;102084.69;2216861;39;114629;-52
2021/05/28 03:45:18;;;;;;;;;;;;;;;21.56;49.64;102086.38;2212654;39;115556;-53
2021/05/28 03:46:49;;;;;;;;;;;;;;;21.53;49.88;102084.97;2208127;39;114169;-52
2021/05/28 03:48:21;;;;;;;;;;;;;;;21.53;49.85;102084.16;2213702;39;114102;-52
2021/05/28 03:49:54;;;;;;;;;;;;;;;21.55;50.41;102084.69;2216632;39;113635;-52
2021/05/28 03:51:26;;;;;;;;;;;;;;;21.55;49.86;102088.34;2217504;39;113781;-52
2021/05/28 03:52:58;;;;;;;;;;;;;;;21.54;49.76;102088.63;2217706;39;113709;-52
2021/05/28 03:54:31;;;;;;;;;;;;;;;21.53;49.98;102086.97;2217125;39;113868;-52
2021/05/28 03:56:03;;;;;;;;;;;;;;;21.53;49.91;102082.16;2217481;39;113702;-53
2021/05/28 03:57:35;;;;;;;;;;;;;;;21.53;50.07;102084.97;2209339;39;113768;-53
2021/05/28 03:59:07;;;;;;;;;;;;;;;21.52;50.34;102082.47;2213558;39;114102;-53
2021/05/28 04:00:40;;;;;;;;;;;;;;;21.52;50.15;102088.09;2217876;39;113948;-53
2021/05/28 04:02:12;;;;;;;;;;;;;;;21.54;50.10;102081.03;2217514;39;113842;-53
2021/05/28 04:03:44;;;;;;;;;;;;;;;21.52;49.93;102080.50;2203653;39;113757;-52
2021/05/28 04:05:16;;;;;;;;;;;;;;;21.52;50.18;102083.31;2213210;39;113551;-53
2021/05/28 04:06:48;;;;;;;;;;;;;;;21.53;50.19;102084.16;2212850;39;113851;-52
2021/05/28 04:08:21;;;;;;;;;;;;;;;21.53;50.06;102084.16;2214908;39;113774;-52
2021/05/28 04:09:53;;;;;;;;;;;;;;;21.51;49.85;102083.59;2214069;39;114820;-52
2021/05/28 04:11:25;;;;;;;;;;;;;;;21.52;50.45;102088.09;2210363;39;114685;-52
2021/05/28 04:12:57;;;;;;;;;;;;;;;21.50;49.92;102081.88;2206447;39;117149;-52
2021/05/28 04:14:28;;;;;;;;;;;;;;;21.52;50.01;102090.91;2211976;39;114402;-52
2021/05/28 04:16:00;;;;;;;;;;;;;;;21.53;50.15;102090.59;2214033;39;114814;-52
2021/05/28 04:17:32;;;;;;;;;;;;;;;21.49;50.23;102089.47;2208658;39;113999;-52
2021/05/28 04:19:05;;;;;;;;;;;;;;;21.51;49.90;102087.25;2203678;39;113878;-52
2021/05/28 04:20:37;;;;;;;;;;;;;;;21.52;50.03;102094.56;2209885;39;114438;-53
2021/05/28 04:22:09;;;;;;;;;;;;;;;21.49;49.98;102100.72;2208207;39;115020;-52
2021/05/28 04:23:41;;;;;;;;;;;;;;;21.52;50.08;102096.53;2210348;39;114845;-53
2021/05/28 04:25:13;;;;;;;;;;;;;;;21.51;49.95;102097.63;2209974;39;115341;-52
2021/05/28 04:26:45;;;;;;;;;;;;;;;21.49;49.98;102095.09;2206417;39;114968;-52
2021/05/28 04:28:17;;;;;;;;;;;;;;;21.48;50.09;102104.69;2205876;39;115284;-52
2021/05/28 04:29:49;;;;;;;;;;;;;;;21.47;50.27;102102.16;2208778;39;115021;-52
2021/05/28 04:31:21;;;;;;;;;;;;;;;21.47;50.18;102104.97;2209194;39;114712;-52
2021/05/28 04:32:53;;;;;;;;;;;;;;;21.47;49.85;102100.19;2210662;39;116190;-52
2021/05/28 04:34:25;;;;;;;;;;;;;;;21.45;49.89;102099.63;2209684;39;115604;-53
2021/05/28 04:35:57;;;;;;;;;;;;;;;21.46;50.00;102104.13;2207644;39;116474;-52
2021/05/28 04:37:29;;;;;;;;;;;;;;;21.43;49.86;102104.72;2204246;39;115625;-52
2021/05/28 04:39:00;;;;;;;;;;;;;;;21.45;49.71;102107.22;2204720;39;116116;-52
2021/05/28 04:40:32;;;;;;;;;;;;;;;21.44;50.03;102103.56;2210130;39;115649;-51
2021/05/28 04:42:05;;;;;;;;;;;;;;;21.45;49.89;102108.06;2208289;39;116115;-52
2021/05/28 04:43:37;;;;;;;;;;;;;;;21.45;49.68;102113.69;2206654;39;114542;-53
2021/05/28 04:45:09;;;;;;;;;;;;;;;21.44;49.65;102114.00;2210445;39;115661;-52
2021/05/28 04:46:43;;;;;;;;;;;;;;;21.42;50.10;102103.03;2209914;39;114532;-52
2021/05/28 04:48:15;;;;;;;;;;;;;;;21.43;49.90;102106.69;2209088;39;116284;-52
2021/05/28 04:49:47;;;;;;;;;;;;;;;21.46;49.94;102108.91;2209899;39;115551;-53
2021/05/28 04:51:18;;;;;;;;;;;;;;;21.43;49.85;102106.69;2211993;39;115673;-52
2021/05/28 04:52:50;;;;;;;;;;;;;;;21.43;50.09;102110.34;2208877;39;113694;-52
2021/05/28 04:54:22;;;;;;;;;;;;;;;21.42;49.80;102117.06;2210017;39;114462;-52
2021/05/28 04:55:54;;;;;;;;;;;;;;;21.43;50.10;102120.72;2210412;39;115069;-52
2021/05/28 04:57:26;;;;;;;;;;;;;;;21.47;50.56;102114.25;2207478;39;113923;-52
2021/05/28 04:58:58;;;;;;;;;;;;;;;21.51;50.89;102115.34;2209475;39;113673;-52
2021/05/28 05:00:29;;;;;;;;;;;;;;;21.52;50.94;102122.69;2207723;39;113954;-52
2021/05/28 05:02:01;;;;;;;;;;;;;;;21.55;50.85;102119.28;2206993;39;114193;-52
2021/05/28 05:03:33;;;;;;;;;;;;;;;21.56;50.72;102126.59;2209747;39;114225;-52
2021/05/28 05:05:05;;;;;;;;;;;;;;;21.62;50.70;102111.38;2209307;39;114143;-52
2021/05/28 05:06:37;;;;;;;;;;;;;;;21.64;50.55;102120.38;2210544;39;113925;-53
2021/05/28 05:08:09;;;;;;;;;;;;;;;21.68;50.94;102120.63;2210198;39;113723;-52
2021/05/28 05:09:40;;;;;;;;;;;;;;;21.71;50.80;102132.13;2208535;39;113854;-52
2021/05/28 05:11:12;;;;;;;;;;;;;;;21.76;50.94;102127.66;2211392;39;113839;-52
2021/05/28 05:12:44;;;;;;;;;;;;;;;21.81;50.97;102127.59;2214111;39;114175;-53
2021/05/28 05:14:15;;;;;;;;;;;;;;;21.85;51.11;102123.09;2210921;39;115054;-52
2021/05/28 05:15:47;;;;;;;;;;;;;;;21.89;51.39;102127.03;2209785;39;114794;-53
2021/05/28 05:17:19;;;;;;;;;;;;;;;21.95;51.60;102131.50;2214179;39;113934;-53
2021/05/28 05:18:50;;;;;;;;;;;;;;;22.00;51.28;102128.66;2213201;39;115213;-52
2021/05/28 05:20:23;;;;;;;;;;;;;;;22.05;51.17;102126.66;2209496;39;114829;-52
2021/05/28 05:21:54;;;;;;;;;;;;;;;22.09;51.01;102135.38;2214509;39;114789;-52
2021/05/28 05:23:26;;;;;;;;;;;;;;;22.14;51.00;102133.38;2210127;39;114997;-54
2021/05/28 05:24:58;;;;;;;;;;;;;;;22.20;50.87;102127.72;2214779;39;115898;-52
2021/05/28 05:26:30;;;;;;;;;;;;;;;22.25;50.81;102125.72;2209583;39;114780;-53
2021/05/28 05:28:01;;;;;;;;;;;;;;;22.31;50.65;102126.50;2213761;39;115151;-52
2021/05/28 05:29:33;;;;;;;;;;;;;;;22.36;51.00;102118.03;2216243;39;114779;-52
2021/05/28 05:31:05;;;;;;;;;;;;;;;22.40;50.47;102121.94;2216058;39;114457;-52
2021/05/28 05:32:36;;;;;;;;;;;;;;;22.45;50.25;102125.56;2216249;39;114845;-52
2021/05/28 05:34:08;;;;;;;;;;;;;;;22.50;50.30;102127.50;2215463;39;114534;-53
2021/05/28 05:35:40;;;;;;;;;;;;;;;22.55;50.19;102128.31;2210192;39;115463;-53
2021/05/28 05:37:12;;;;;;;;;;;;;;;22.60;50.01;102125.44;2204262;39;115628;-53
2021/05/28 05:38:44;;;;;;;;;;;;;;;22.64;50.17;102122.88;2209969;39;116103;-52
2021/05/28 05:40:15;;;;;;;;;;;;;;;22.70;49.81;102126.53;2215394;39;114576;-53
2021/05/28 05:41:47;;;;;;;;;;;;;;;22.75;49.97;102123.69;2215533;39;115547;-53
2021/05/28 05:43:19;;;;;;;;;;;;;;;22.79;49.94;102119.13;2217383;39;115516;-52
2021/05/28 05:44:51;;;;;;;;;;;;;;;22.83;49.95;102120.22;2207096;39;117552;-52
2021/05/28 05:46:23;;;;;;;;;;;;;;;22.87;49.44;102119.31;2204902;39;113999;-53
2021/05/28 05:47:54;;;;;;;;;;;;;;;22.92;50.11;102118.44;2215540;39;116217;-52
2021/05/28 05:49:26;;;;;;;;;;;;;;;22.96;50.06;102120.38;2211898;39;115623;-53
2021/05/28 05:50:58;;;;;;;;;;;;;;;23.00;49.94;102124.28;2212213;39;115978;-53
2021/05/28 05:52:30;;;;;;;;;;;;;;;23.04;49.58;102121.69;2198535;39;115567;-52
2021/05/28 05:54:02;;;;;;;;;;;;;;;23.08;49.62;102125.59;2212817;39;114824;-52
2021/05/28 05:55:34;;;;;;;;;;;;;;;23.10;49.01;102125.31;2208228;39;117620;-52
2021/05/28 05:57:07;;;;;;;;;;;;;;;23.15;49.11;102125.25;2209676;39;115562;-52
2021/05/28 05:58:40;;;;;;;;;;;;;;;23.18;48.82;102124.66;2209975;39;114040;-52
2021/05/28 06:00:13;;;;;;;;;;;;;;;23.22;48.68;102129.41;2212735;39;113967;-53
2021/05/28 06:01:44;;;;;;;;;;;;;;;23.25;48.47;102125.16;2209750;39;113901;-52
2021/05/28 06:03:17;;;;;;;;;;;;;;;23.28;48.37;102125.41;2215215;39;113729;-52
2021/05/28 06:04:49;;;;;;;;;;;;;;;23.31;48.23;102124.78;2217087;39;113679;-52
2021/05/28 06:06:23;;;;;;;;;;;;;;;23.34;48.25;102126.19;2217759;39;113883;-52
2021/05/28 06:07:55;;;;;;;;;;;;;;;23.36;48.22;102124.75;2209418;39;113803;-52
2021/05/28 06:09:27;;;;;;;;;;;;;;;23.39;48.02;102126.94;2207570;39;114179;-53
2021/05/28 06:10:59;;;;;;;;;;;;;;;23.41;47.70;102126.66;2215441;39;113834;-51
2021/05/28 06:12:31;;;;;;;;;;;;;;;23.42;47.90;102119.88;2204354;39;113746;-51
2021/05/28 06:14:03;;;;;;;;;;;;;;;23.43;47.56;102130.88;2206255;39;113833;-53
2021/05/28 06:15:35;;;;;;;;;;;;;;;23.46;47.55;102121.84;2214322;39;114251;-52
2021/05/28 06:17:09;;;;;;;;;;;;;;;23.46;47.54;102124.66;2210224;39;113964;-53
2021/05/28 06:18:41;;;;;;;;;;;;;;;23.48;47.25;102130.00;2210876;39;113852;-52
2021/05/28 06:20:14;;;;;;;;;;;;;;;23.51;47.37;102128.56;2214440;39;114794;-52
2021/05/28 06:21:47;;;;;;;;;;;;;;;23.51;47.42;102134.19;2214419;39;115149;-53
2021/05/28 06:23:20;;;;;;;;;;;;;;;23.53;47.20;102129.13;2210919;39;113867;-52
2021/05/28 06:24:52;;;;;;;;;;;;;;;23.55;47.24;102129.63;2215444;39;114276;-52
2021/05/28 06:26:24;;;;;;;;;;;;;;;23.55;47.23;102136.13;2203981;39;114358;-51
2021/05/28 06:27:56;;;;;;;;;;;;;;;23.56;47.16;102129.34;2213546;39;115374;-52
2021/05/28 06:29:28;;;;;;;;;;;;;;;23.56;47.24;102134.16;2214022;39;114782;-52
2021/05/28 06:31:00;;;;;;;;;;;;;;;23.58;47.09;102134.66;2200641;39;114835;-54
2021/05/28 06:32:32;;;;;;;;;;;;;;;23.57;47.14;102142.31;2213288;39;115401;-53
2021/05/28 06:34:04;;;;;;;;;;;;;;;23.58;46.99;102143.13;2210794;39;114595;-52
2021/05/28 06:35:37;;;;;;;;;;;;;;;23.57;46.93;102142.31;2214399;39;114809;-52
2021/05/28 06:37:09;;;;;;;;;;;;;;;23.57;46.76;102141.47;2210363;39;113862;-52
2021/05/28 06:38:41;;;;;;;;;;;;;;;23.58;46.71;102137.50;2215194;39;114975;-53
2021/05/28 06:40:14;;;;;;;;;;;;;;;23.58;46.79;102141.16;2219799;39;114999;-53
2021/05/28 06:41:49;;;;;;;;;;;;;;;23.57;46.83;102141.47;2217443;39;115193;-52
2021/05/28 06:43:21;;;;;;;;;;;;;;;23.58;46.82;102135.50;2215691;39;116207;-52
2021/05/28 06:44:53;;;;;;;;;;;;;;;23.58;46.88;102140.31;2212396;39;115674;-51
2021/05/28 06:46:25;;;;;;;;;;;;;;;23.57;46.88;102139.50;2210412;39;115421;-52
2021/05/28 06:47:56;;;;;;;;;;;;;;;23.58;47.50;102141.16;2204742;39;115420;-52
2021/05/28 06:49:28;;;;;;;;;;;;;;;23.56;46.81;102140.63;2209241;39;115079;-53
2021/05/28 06:51:00;;;;;;;;;;;;;;;23.53;46.30;102146.84;2217537;39;115561;-52
2021/05/28 06:52:33;;;;;;;;;;;;;;;23.48;45.70;102141.28;2217471;39;114419;-52
2021/05/28 06:54:06;;;;;;;;;;;;;;;23.43;45.60;102144.97;2214449;39;115792;-52
2021/05/28 06:55:39;;;;;;;;;;;;;;;23.37;45.18;102146.16;2211234;39;114815;-52
2021/05/28 06:57:11;;;;;;;;;;;;;;;23.32;43.28;102148.19;2207395;39;114670;-52
2021/05/28 06:58:48;;;;;;;;;;;;;;;23.28;42.63;102144.28;2208225;39;116508;-53
2021/05/28 07:00:21;;;;;;;;;;;;;;;23.31;43.77;102146.50;2204752;39;116115;-53
2021/05/28 07:01:54;;;;;;;;;;;;;;;23.31;43.42;102144.53;2211267;39;116309;-53
2021/05/28 07:03:26;;;;;;;;;;;;;;;23.29;43.37;102144.00;2207682;39;113973;-52
2021/05/28 07:04:58;;;;;;;;;;;;;;;23.30;43.37;102142.03;2206463;39;113931;-53
2021/05/28 07:06:31;;;;;;;;;;;;;;;23.28;43.51;102155.56;2214159;39;113717;-51
2021/05/28 07:08:03;;;;;;;;;;;;;;;23.27;43.57;102157.56;2216920;39;113963;-53
2021/05/28 07:09:35;;;;;;;;;;;;;;;23.26;43.39;102155.06;2209268;39;114593;-52
2021/05/28 07:11:09;;;;;;;;;;;;;;;23.24;43.41;102160.13;2204723;39;114296;-52
2021/05/28 07:12:41;;;;;;;;;;;;;;;23.22;43.36;102157.59;2209864;39;113986;-53
2021/05/28 07:14:15;;;;;;;;;;;;;;;23.18;44.03;102153.69;2211207;39;113989;-52
2021/05/28 07:15:47;;;;;;;;;;;;;;;23.23;43.79;102153.66;2214335;39;113886;-53
2021/05/28 07:17:19;;;;;;;;;;;;;;;23.19;43.68;102158.19;2217385;39;113732;-52
2021/05/28 07:18:52;;;;;;;;;;;;;;;23.14;42.60;102148.94;2217496;39;113808;-52
2021/05/28 07:20:25;;;;;;;;;;;;;;;23.10;41.94;102147.88;2213672;39;113628;-51
2021/05/28 07:21:58;;;;;;;;;;;;;;;23.06;42.51;102156.09;2209347;39;113918;-53
2021/05/28 07:23:31;;;;;;;;;;;;;;;23.08;43.28;102155.78;2206099;39;114108;-53
2021/05/28 07:25:05;;;;;;;;;;;;;;;23.10;43.36;102150.69;2217048;39;113904;-52
2021/05/28 07:26:38;;;;;;;;;;;;;;;23.10;43.10;102148.72;2206231;39;114851;-52
2021/05/28 07:28:13;;;;;;;;;;;;;;;23.09;43.20;102146.19;2208795;39;115124;-52
2021/05/28 07:29:46;;;;;;;;;;;;;;;23.09;43.17;102152.66;2207885;39;114771;-52
2021/05/28 07:31:18;;;;;;;;;;;;;;;23.07;43.19;102151.28;2209831;39;115020;-52
2021/05/28 07:32:51;;;;;;;;;;;;;;;23.07;43.59;102152.13;2210613;39;114820;-52
2021/05/28 07:34:23;;;;;;;;;;;;;;;23.06;43.58;102150.44;2206766;39;113909;-53
2021/05/28 07:35:56;;;;;;;;;;;;;;;23.07;43.57;102162.56;2205747;39;115650;-52
2021/05/28 07:37:28;;;;;;;;;;;;;;;23.01;43.77;102164.59;2209965;39;114067;-52
2021/05/28 07:39:00;;;;;;;;;;;;;;;23.03;43.88;102159.50;2209800;39;115064;-53
2021/05/28 07:40:33;;;;;;;;;;;;;;;23.05;44.10;102162.84;2209922;39;117734;-52
2021/05/28 07:42:06;;;;;;;;;;;;;;;23.03;44.00;102162.31;2206558;39;114980;-52
2021/05/28 07:43:38;;;;;;;;;;;;;;;22.84;42.35;102167.84;2206916;39;115931;-54
2021/05/28 07:45:11;;;;;;;;;;;;;;;22.73;41.61;102160.59;2211448;39;114667;-52
2021/05/28 07:46:46;;;;;;;;;;;;;;;22.64;41.27;102162.31;2206275;39;114887;-52
2021/05/28 07:48:19;;;;;;;;;;;;;;;22.58;41.27;102163.47;2207796;39;114806;-52
2021/05/28 07:49:52;;;;;;;;;;;;;;;22.52;40.93;102159.88;2204815;39;115144;-52